sensor_id;sensor_type;location;lat;lon;timestamp;P1;durP1;ratioP1;P2;durP2;ratioP2
63587;SDS011;49966;46.896;18.004;2023-06-10T00:01:15;11.95;;;5.68;;
63587;SDS011;49966;46.896;18.004;2023-06-10T00:03:45;10.98;;;5.68;;
63587;SDS011;49966;46.896;18.004;2023-06-10T00:06:14;11.32;;;5.40;;
63587;SDS011;49966;46.896;18.004;2023-06-10T00:08:42;13.32;;;5.90;;
63587;SDS011;49966;46.896;18.004;2023-06-10T00:11:14;13.20;;;5.22;;
63587;SDS011;49966;46.896;18.004;2023-06-10T00:13:42;12.23;;;5.53;;
63587;SDS011;49966;46.896;18.004;2023-06-10T00:16:10;10.95;;;5.40;;
63587;SDS011;49966;46.896;18.004;2023-06-10T00:18:39;10.80;;;5.53;;
63587;SDS011;49966;46.896;18.004;2023-06-10T00:21:09;11.57;;;5.22;;
63587;SDS011;49966;46.896;18.004;2023-06-10T00:23:40;11.80;;;5.30;;
63587;SDS011;49966;46.896;18.004;2023-06-10T00:26:08;11.20;;;5.25;;
63587;SDS011;49966;46.896;18.004;2023-06-10T00:28:37;10.05;;;5.25;;
63587;SDS011;49966;46.896;18.004;2023-06-10T00:31:05;11.35;;;5.55;;
63587;SDS011;49966;46.896;18.004;2023-06-10T00:33:33;17.35;;;5.43;;
63587;SDS011;49966;46.896;18.004;2023-06-10T00:36:02;8.25;;;4.95;;
63587;SDS011;49966;46.896;18.004;2023-06-10T00:38:32;11.63;;;5.65;;
63587;SDS011;49966;46.896;18.004;2023-06-10T00:41:01;14.20;;;5.07;;
63587;SDS011;49966;46.896;18.004;2023-06-10T00:43:29;12.05;;;5.47;;
63587;SDS011;49966;46.896;18.004;2023-06-10T00:45:57;12.35;;;5.50;;
63587;SDS011;49966;46.896;18.004;2023-06-10T00:48:27;11.73;;;6.30;;
63587;SDS011;49966;46.896;18.004;2023-06-10T00:50:55;13.38;;;5.45;;
63587;SDS011;49966;46.896;18.004;2023-06-10T00:53:24;10.90;;;5.32;;
63587;SDS011;49966;46.896;18.004;2023-06-10T00:55:54;14.43;;;5.22;;
63587;SDS011;49966;46.896;18.004;2023-06-10T00:58:23;10.10;;;5.28;;
63587;SDS011;49966;46.896;18.004;2023-06-10T01:00:52;10.23;;;5.65;;
63587;SDS011;49966;46.896;18.004;2023-06-10T01:03:20;14.35;;;6.00;;
63587;SDS011;49966;46.896;18.004;2023-06-10T01:05:50;11.93;;;5.30;;
63587;SDS011;49966;46.896;18.004;2023-06-10T01:08:27;9.48;;;5.65;;
63587;SDS011;49966;46.896;18.004;2023-06-10T01:11:08;10.68;;;5.22;;
63587;SDS011;49966;46.896;18.004;2023-06-10T01:13:44;11.70;;;5.30;;
63587;SDS011;49966;46.896;18.004;2023-06-10T01:16:14;12.25;;;5.10;;
63587;SDS011;49966;46.896;18.004;2023-06-10T01:18:42;15.20;;;5.70;;
63587;SDS011;49966;46.896;18.004;2023-06-10T01:21:14;9.38;;;5.18;;
63587;SDS011;49966;46.896;18.004;2023-06-10T01:23:46;19.17;;;5.78;;
63587;SDS011;49966;46.896;18.004;2023-06-10T01:26:14;13.25;;;5.43;;
63587;SDS011;49966;46.896;18.004;2023-06-10T01:28:44;13.82;;;5.97;;
63587;SDS011;49966;46.896;18.004;2023-06-10T01:31:25;19.45;;;5.43;;
63587;SDS011;49966;46.896;18.004;2023-06-10T01:34:01;12.25;;;5.78;;
63587;SDS011;49966;46.896;18.004;2023-06-10T01:36:32;16.15;;;5.35;;
63587;SDS011;49966;46.896;18.004;2023-06-10T01:39:03;12.90;;;5.13;;
63587;SDS011;49966;46.896;18.004;2023-06-10T01:41:32;10.50;;;5.25;;
63587;SDS011;49966;46.896;18.004;2023-06-10T01:44:00;8.95;;;4.85;;
63587;SDS011;49966;46.896;18.004;2023-06-10T01:46:29;13.13;;;5.28;;
63587;SDS011;49966;46.896;18.004;2023-06-10T01:48:57;14.68;;;5.05;;
63587;SDS011;49966;46.896;18.004;2023-06-10T01:51:26;12.02;;;5.72;;
63587;SDS011;49966;46.896;18.004;2023-06-10T01:53:56;13.95;;;5.22;;
63587;SDS011;49966;46.896;18.004;2023-06-10T01:56:24;11.95;;;5.50;;
63587;SDS011;49966;46.896;18.004;2023-06-10T01:58:52;10.65;;;4.97;;
63587;SDS011;49966;46.896;18.004;2023-06-10T02:01:25;14.68;;;4.95;;
63587;SDS011;49966;46.896;18.004;2023-06-10T02:03:54;9.85;;;5.22;;
63587;SDS011;49966;46.896;18.004;2023-06-10T02:06:24;14.52;;;5.20;;
63587;SDS011;49966;46.896;18.004;2023-06-10T02:08:53;15.73;;;5.18;;
63587;SDS011;49966;46.896;18.004;2023-06-10T02:11:24;13.18;;;5.65;;
63587;SDS011;49966;46.896;18.004;2023-06-10T02:13:54;14.32;;;5.15;;
63587;SDS011;49966;46.896;18.004;2023-06-10T02:16:27;10.05;;;5.10;;
63587;SDS011;49966;46.896;18.004;2023-06-10T02:18:57;9.18;;;5.18;;
63587;SDS011;49966;46.896;18.004;2023-06-10T02:21:27;13.40;;;5.25;;
63587;SDS011;49966;46.896;18.004;2023-06-10T02:23:56;12.63;;;5.15;;
63587;SDS011;49966;46.896;18.004;2023-06-10T02:26:27;8.98;;;5.28;;
63587;SDS011;49966;46.896;18.004;2023-06-10T02:28:56;11.50;;;5.80;;
63587;SDS011;49966;46.896;18.004;2023-06-10T02:31:26;10.57;;;5.00;;
63587;SDS011;49966;46.896;18.004;2023-06-10T02:33:55;16.80;;;5.20;;
63587;SDS011;49966;46.896;18.004;2023-06-10T02:36:25;13.85;;;5.10;;
63587;SDS011;49966;46.896;18.004;2023-06-10T02:38:57;12.95;;;5.32;;
63587;SDS011;49966;46.896;18.004;2023-06-10T02:41:30;10.27;;;4.82;;
63587;SDS011;49966;46.896;18.004;2023-06-10T02:44:01;9.25;;;4.78;;
63587;SDS011;49966;46.896;18.004;2023-06-10T02:46:32;10.73;;;5.10;;
63587;SDS011;49966;46.896;18.004;2023-06-10T02:49:01;12.63;;;4.57;;
63587;SDS011;49966;46.896;18.004;2023-06-10T02:51:30;13.90;;;5.43;;
63587;SDS011;49966;46.896;18.004;2023-06-10T02:53:59;7.50;;;4.70;;
63587;SDS011;49966;46.896;18.004;2023-06-10T02:56:31;7.20;;;4.50;;
63587;SDS011;49966;46.896;18.004;2023-06-10T02:59:00;12.25;;;4.50;;
63587;SDS011;49966;46.896;18.004;2023-06-10T03:01:32;13.50;;;5.05;;
63587;SDS011;49966;46.896;18.004;2023-06-10T03:04:04;7.57;;;4.57;;
63587;SDS011;49966;46.896;18.004;2023-06-10T03:06:37;22.33;;;5.95;;
63587;SDS011;49966;46.896;18.004;2023-06-10T03:09:07;12.70;;;4.93;;
63587;SDS011;49966;46.896;18.004;2023-06-10T03:11:38;14.02;;;4.57;;
63587;SDS011;49966;46.896;18.004;2023-06-10T03:14:07;11.77;;;4.90;;
63587;SDS011;49966;46.896;18.004;2023-06-10T03:16:42;12.27;;;5.68;;
63587;SDS011;49966;46.896;18.004;2023-06-10T03:19:12;12.68;;;5.28;;
63587;SDS011;49966;46.896;18.004;2023-06-10T03:21:44;9.98;;;4.88;;
63587;SDS011;49966;46.896;18.004;2023-06-10T03:24:13;12.98;;;5.05;;
63587;SDS011;49966;46.896;18.004;2023-06-10T03:26:49;10.35;;;4.70;;
63587;SDS011;49966;46.896;18.004;2023-06-10T03:29:18;13.05;;;6.05;;
63587;SDS011;49966;46.896;18.004;2023-06-10T03:31:48;7.97;;;4.70;;
63587;SDS011;49966;46.896;18.004;2023-06-10T03:34:20;10.43;;;4.80;;
63587;SDS011;49966;46.896;18.004;2023-06-10T03:36:55;11.48;;;4.80;;
63587;SDS011;49966;46.896;18.004;2023-06-10T03:39:25;11.10;;;4.82;;
63587;SDS011;49966;46.896;18.004;2023-06-10T03:42:01;11.25;;;4.68;;
63587;SDS011;49966;46.896;18.004;2023-06-10T03:44:29;10.98;;;5.03;;
63587;SDS011;49966;46.896;18.004;2023-06-10T03:46:59;10.65;;;5.05;;
63587;SDS011;49966;46.896;18.004;2023-06-10T03:49:28;13.98;;;5.03;;
63587;SDS011;49966;46.896;18.004;2023-06-10T03:51:56;8.77;;;4.75;;
63587;SDS011;49966;46.896;18.004;2023-06-10T03:54:26;9.80;;;4.82;;
63587;SDS011;49966;46.896;18.004;2023-06-10T03:56:54;11.05;;;5.35;;
63587;SDS011;49966;46.896;18.004;2023-06-10T03:59:25;9.75;;;5.03;;
63587;SDS011;49966;46.896;18.004;2023-06-10T04:01:53;12.23;;;5.45;;
63587;SDS011;49966;46.896;18.004;2023-06-10T04:04:23;10.63;;;5.60;;
63587;SDS011;49966;46.896;18.004;2023-06-10T04:06:53;10.20;;;4.93;;
63587;SDS011;49966;46.896;18.004;2023-06-10T04:09:22;14.02;;;5.30;;
63587;SDS011;49966;46.896;18.004;2023-06-10T04:11:52;9.63;;;5.10;;
63587;SDS011;49966;46.896;18.004;2023-06-10T04:14:35;12.80;;;5.05;;
63587;SDS011;49966;46.896;18.004;2023-06-10T04:17:04;10.93;;;4.97;;
63587;SDS011;49966;46.896;18.004;2023-06-10T04:19:34;11.15;;;5.07;;
63587;SDS011;49966;46.896;18.004;2023-06-10T04:22:02;6.85;;;4.65;;
63587;SDS011;49966;46.896;18.004;2023-06-10T04:24:31;9.57;;;5.22;;
63587;SDS011;49966;46.896;18.004;2023-06-10T04:27:00;9.65;;;5.07;;
63587;SDS011;49966;46.896;18.004;2023-06-10T04:29:28;7.10;;;4.95;;
63587;SDS011;49966;46.896;18.004;2023-06-10T04:31:59;8.00;;;5.00;;
63587;SDS011;49966;46.896;18.004;2023-06-10T04:34:28;11.07;;;4.70;;
63587;SDS011;49966;46.896;18.004;2023-06-10T04:36:56;7.10;;;4.50;;
63587;SDS011;49966;46.896;18.004;2023-06-10T04:39:25;7.63;;;4.75;;
63587;SDS011;49966;46.896;18.004;2023-06-10T04:41:53;9.98;;;4.65;;
63587;SDS011;49966;46.896;18.004;2023-06-10T04:44:22;7.18;;;4.55;;
63587;SDS011;49966;46.896;18.004;2023-06-10T04:46:50;6.50;;;4.38;;
63587;SDS011;49966;46.896;18.004;2023-06-10T04:49:20;7.07;;;4.63;;
63587;SDS011;49966;46.896;18.004;2023-06-10T04:51:48;6.85;;;4.82;;
63587;SDS011;49966;46.896;18.004;2023-06-10T04:54:18;6.22;;;4.63;;
63587;SDS011;49966;46.896;18.004;2023-06-10T04:56:46;8.25;;;4.75;;
63587;SDS011;49966;46.896;18.004;2023-06-10T04:59:14;7.07;;;4.43;;
63587;SDS011;49966;46.896;18.004;2023-06-10T05:01:42;11.20;;;4.32;;
63587;SDS011;49966;46.896;18.004;2023-06-10T05:04:11;7.95;;;4.45;;
63587;SDS011;49966;46.896;18.004;2023-06-10T05:06:40;10.32;;;4.63;;
63587;SDS011;49966;46.896;18.004;2023-06-10T05:09:09;10.43;;;4.55;;
63587;SDS011;49966;46.896;18.004;2023-06-10T05:11:37;6.95;;;4.53;;
63587;SDS011;49966;46.896;18.004;2023-06-10T05:14:06;6.28;;;4.15;;
63587;SDS011;49966;46.896;18.004;2023-06-10T05:16:34;8.73;;;4.13;;
63587;SDS011;49966;46.896;18.004;2023-06-10T05:19:04;6.18;;;4.18;;
63587;SDS011;49966;46.896;18.004;2023-06-10T05:21:34;7.63;;;4.55;;
63587;SDS011;49966;46.896;18.004;2023-06-10T05:24:04;8.48;;;5.00;;
63587;SDS011;49966;46.896;18.004;2023-06-10T05:26:34;7.60;;;4.28;;
63587;SDS011;49966;46.896;18.004;2023-06-10T05:29:04;7.32;;;3.47;;
63587;SDS011;49966;46.896;18.004;2023-06-10T05:31:32;3.97;;;3.33;;
63587;SDS011;49966;46.896;18.004;2023-06-10T05:34:01;6.78;;;3.40;;
63587;SDS011;49966;46.896;18.004;2023-06-10T05:36:29;4.25;;;3.10;;
63587;SDS011;49966;46.896;18.004;2023-06-10T05:38:58;7.75;;;3.42;;
63587;SDS011;49966;46.896;18.004;2023-06-10T05:41:28;6.50;;;3.20;;
63587;SDS011;49966;46.896;18.004;2023-06-10T05:43:57;6.03;;;3.63;;
63587;SDS011;49966;46.896;18.004;2023-06-10T05:46:25;6.15;;;3.40;;
63587;SDS011;49966;46.896;18.004;2023-06-10T05:48:53;5.97;;;3.58;;
63587;SDS011;49966;46.896;18.004;2023-06-10T05:51:22;6.85;;;3.50;;
63587;SDS011;49966;46.896;18.004;2023-06-10T05:53:50;5.97;;;3.45;;
63587;SDS011;49966;46.896;18.004;2023-06-10T05:56:18;4.15;;;3.20;;
63587;SDS011;49966;46.896;18.004;2023-06-10T05:58:48;5.40;;;3.40;;
63587;SDS011;49966;46.896;18.004;2023-06-10T06:01:17;5.47;;;3.40;;
63587;SDS011;49966;46.896;18.004;2023-06-10T06:03:45;4.45;;;3.10;;
63587;SDS011;49966;46.896;18.004;2023-06-10T06:06:13;6.90;;;3.90;;
63587;SDS011;49966;46.896;18.004;2023-06-10T06:08:41;5.03;;;3.72;;
63587;SDS011;49966;46.896;18.004;2023-06-10T06:11:10;6.53;;;3.50;;
63587;SDS011;49966;46.896;18.004;2023-06-10T06:13:38;7.25;;;3.38;;
63587;SDS011;49966;46.896;18.004;2023-06-10T06:16:07;4.75;;;3.88;;
63587;SDS011;49966;46.896;18.004;2023-06-10T06:18:36;8.52;;;3.70;;
63587;SDS011;49966;46.896;18.004;2023-06-10T06:21:05;5.03;;;3.58;;
63587;SDS011;49966;46.896;18.004;2023-06-10T06:23:33;5.95;;;3.70;;
63587;SDS011;49966;46.896;18.004;2023-06-10T06:26:01;4.80;;;3.45;;
63587;SDS011;49966;46.896;18.004;2023-06-10T06:28:32;5.60;;;3.80;;
63587;SDS011;49966;46.896;18.004;2023-06-10T06:31:01;7.88;;;3.67;;
63587;SDS011;49966;46.896;18.004;2023-06-10T06:33:34;7.00;;;3.70;;
63587;SDS011;49966;46.896;18.004;2023-06-10T06:36:02;4.93;;;3.40;;
63587;SDS011;49966;46.896;18.004;2023-06-10T06:38:31;4.25;;;3.30;;
63587;SDS011;49966;46.896;18.004;2023-06-10T06:41:05;6.30;;;3.63;;
63587;SDS011;49966;46.896;18.004;2023-06-10T06:43:33;5.80;;;3.70;;
63587;SDS011;49966;46.896;18.004;2023-06-10T06:46:02;6.15;;;3.90;;
63587;SDS011;49966;46.896;18.004;2023-06-10T06:48:33;9.68;;;4.47;;
63587;SDS011;49966;46.896;18.004;2023-06-10T06:51:02;5.25;;;4.10;;
63587;SDS011;49966;46.896;18.004;2023-06-10T06:53:30;5.35;;;4.00;;
63587;SDS011;49966;46.896;18.004;2023-06-10T06:55:58;4.80;;;3.83;;
63587;SDS011;49966;46.896;18.004;2023-06-10T06:58:27;5.65;;;3.97;;
63587;SDS011;49966;46.896;18.004;2023-06-10T07:00:55;7.07;;;3.90;;
63587;SDS011;49966;46.896;18.004;2023-06-10T07:03:23;8.65;;;4.13;;
63587;SDS011;49966;46.896;18.004;2023-06-10T07:05:53;6.53;;;3.30;;
63587;SDS011;49966;46.896;18.004;2023-06-10T07:08:22;5.03;;;3.50;;
63587;SDS011;49966;46.896;18.004;2023-06-10T07:10:50;5.28;;;3.58;;
63587;SDS011;49966;46.896;18.004;2023-06-10T07:13:18;7.10;;;3.80;;
63587;SDS011;49966;46.896;18.004;2023-06-10T07:15:47;6.15;;;4.00;;
63587;SDS011;49966;46.896;18.004;2023-06-10T07:18:16;8.05;;;3.80;;
63587;SDS011;49966;46.896;18.004;2023-06-10T07:20:44;6.28;;;4.25;;
63587;SDS011;49966;46.896;18.004;2023-06-10T07:23:14;7.65;;;4.28;;
63587;SDS011;49966;46.896;18.004;2023-06-10T07:25:42;6.43;;;3.90;;
63587;SDS011;49966;46.896;18.004;2023-06-10T07:28:10;7.15;;;4.00;;
63587;SDS011;49966;46.896;18.004;2023-06-10T07:30:38;6.18;;;4.00;;
63587;SDS011;49966;46.896;18.004;2023-06-10T07:33:07;4.88;;;3.90;;
63587;SDS011;49966;46.896;18.004;2023-06-10T07:35:37;4.65;;;3.50;;
63587;SDS011;49966;46.896;18.004;2023-06-10T07:38:05;6.32;;;3.83;;
63587;SDS011;49966;46.896;18.004;2023-06-10T07:40:34;6.60;;;4.28;;
63587;SDS011;49966;46.896;18.004;2023-06-10T07:43:02;7.97;;;4.20;;
63587;SDS011;49966;46.896;18.004;2023-06-10T07:45:31;8.35;;;4.00;;
63587;SDS011;49966;46.896;18.004;2023-06-10T07:47:59;7.47;;;4.40;;
63587;SDS011;49966;46.896;18.004;2023-06-10T07:50:28;4.60;;;3.72;;
63587;SDS011;49966;46.896;18.004;2023-06-10T07:52:56;6.65;;;3.80;;
63587;SDS011;49966;46.896;18.004;2023-06-10T07:55:24;8.40;;;4.40;;
63587;SDS011;49966;46.896;18.004;2023-06-10T07:57:55;5.68;;;4.25;;
63587;SDS011;49966;46.896;18.004;2023-06-10T08:00:23;8.68;;;4.35;;
63587;SDS011;49966;46.896;18.004;2023-06-10T08:02:51;7.32;;;4.03;;
63587;SDS011;49966;46.896;18.004;2023-06-10T08:05:19;4.85;;;3.22;;
63587;SDS011;49966;46.896;18.004;2023-06-10T08:07:48;5.57;;;3.53;;
63587;SDS011;49966;46.896;18.004;2023-06-10T08:10:16;5.15;;;3.70;;
63587;SDS011;49966;46.896;18.004;2023-06-10T08:12:44;6.45;;;4.00;;
63587;SDS011;49966;46.896;18.004;2023-06-10T08:15:14;5.35;;;3.70;;
63587;SDS011;49966;46.896;18.004;2023-06-10T08:17:42;4.78;;;3.92;;
63587;SDS011;49966;46.896;18.004;2023-06-10T08:20:11;5.97;;;3.97;;
63587;SDS011;49966;46.896;18.004;2023-06-10T08:22:39;7.82;;;3.90;;
63587;SDS011;49966;46.896;18.004;2023-06-10T08:25:08;6.50;;;3.90;;
63587;SDS011;49966;46.896;18.004;2023-06-10T08:27:37;5.10;;;3.65;;
63587;SDS011;49966;46.896;18.004;2023-06-10T08:30:07;4.78;;;3.90;;
63587;SDS011;49966;46.896;18.004;2023-06-10T08:32:38;7.07;;;4.25;;
63587;SDS011;49966;46.896;18.004;2023-06-10T08:35:07;7.22;;;4.20;;
63587;SDS011;49966;46.896;18.004;2023-06-10T08:37:36;6.03;;;4.20;;
63587;SDS011;49966;46.896;18.004;2023-06-10T08:40:05;5.13;;;3.80;;
63587;SDS011;49966;46.896;18.004;2023-06-10T08:42:36;4.72;;;3.40;;
63587;SDS011;49966;46.896;18.004;2023-06-10T08:45:08;7.28;;;3.72;;
63587;SDS011;49966;46.896;18.004;2023-06-10T08:47:45;3.65;;;3.15;;
63587;SDS011;49966;46.896;18.004;2023-06-10T08:50:14;4.30;;;3.08;;
63587;SDS011;49966;46.896;18.004;2023-06-10T08:52:44;3.22;;;2.88;;
63587;SDS011;49966;46.896;18.004;2023-06-10T08:55:18;3.58;;;3.03;;
63587;SDS011;49966;46.896;18.004;2023-06-10T08:57:49;4.72;;;3.15;;
63587;SDS011;49966;46.896;18.004;2023-06-10T09:00:17;5.32;;;3.30;;
63587;SDS011;49966;46.896;18.004;2023-06-10T09:02:47;6.40;;;3.22;;
63587;SDS011;49966;46.896;18.004;2023-06-10T09:05:16;3.67;;;3.20;;
63587;SDS011;49966;46.896;18.004;2023-06-10T09:07:45;4.57;;;3.30;;
63587;SDS011;49966;46.896;18.004;2023-06-10T09:10:15;7.10;;;3.05;;
63587;SDS011;49966;46.896;18.004;2023-06-10T09:12:44;4.00;;;3.03;;
63587;SDS011;49966;46.896;18.004;2023-06-10T09:15:12;4.13;;;2.72;;
63587;SDS011;49966;46.896;18.004;2023-06-10T09:17:41;3.90;;;3.20;;
63587;SDS011;49966;46.896;18.004;2023-06-10T09:20:11;4.30;;;3.22;;
63587;SDS011;49966;46.896;18.004;2023-06-10T09:22:41;7.28;;;3.30;;
63587;SDS011;49966;46.896;18.004;2023-06-10T09:25:10;6.93;;;3.10;;
63587;SDS011;49966;46.896;18.004;2023-06-10T09:27:43;3.80;;;3.10;;
63587;SDS011;49966;46.896;18.004;2023-06-10T09:30:24;6.35;;;3.30;;
63587;SDS011;49966;46.896;18.004;2023-06-10T09:32:54;4.45;;;3.13;;
63587;SDS011;49966;46.896;18.004;2023-06-10T09:35:25;3.53;;;3.03;;
63587;SDS011;49966;46.896;18.004;2023-06-10T09:37:55;4.57;;;3.22;;
63587;SDS011;49966;46.896;18.004;2023-06-10T09:40:25;3.40;;;3.10;;
63587;SDS011;49966;46.896;18.004;2023-06-10T09:42:55;3.58;;;2.92;;
63587;SDS011;49966;46.896;18.004;2023-06-10T09:45:28;3.75;;;3.00;;
63587;SDS011;49966;46.896;18.004;2023-06-10T09:47:58;4.53;;;3.00;;
63587;SDS011;49966;46.896;18.004;2023-06-10T09:50:28;3.38;;;2.90;;
63587;SDS011;49966;46.896;18.004;2023-06-10T09:53:00;4.45;;;3.28;;
63587;SDS011;49966;46.896;18.004;2023-06-10T09:55:30;5.55;;;3.28;;
63587;SDS011;49966;46.896;18.004;2023-06-10T09:58:00;5.75;;;2.90;;
63587;SDS011;49966;46.896;18.004;2023-06-10T10:00:31;3.00;;;2.70;;
63587;SDS011;49966;46.896;18.004;2023-06-10T10:03:00;4.45;;;2.95;;
63587;SDS011;49966;46.896;18.004;2023-06-10T10:05:30;3.13;;;2.65;;
63587;SDS011;49966;46.896;18.004;2023-06-10T10:07:58;3.55;;;2.70;;
63587;SDS011;49966;46.896;18.004;2023-06-10T10:10:26;5.80;;;2.60;;
63587;SDS011;49966;46.896;18.004;2023-06-10T10:12:55;6.03;;;3.03;;
63587;SDS011;49966;46.896;18.004;2023-06-10T10:15:24;6.28;;;2.70;;
63587;SDS011;49966;46.896;18.004;2023-06-10T10:17:58;5.10;;;2.55;;
63587;SDS011;49966;46.896;18.004;2023-06-10T10:20:33;5.88;;;2.90;;
63587;SDS011;49966;46.896;18.004;2023-06-10T10:23:04;3.47;;;2.30;;
63587;SDS011;49966;46.896;18.004;2023-06-10T10:25:38;3.05;;;2.25;;
63587;SDS011;49966;46.896;18.004;2023-06-10T10:28:08;2.42;;;2.22;;
63587;SDS011;49966;46.896;18.004;2023-06-10T10:30:40;2.78;;;2.00;;
63587;SDS011;49966;46.896;18.004;2023-06-10T10:33:12;4.30;;;2.85;;
63587;SDS011;49966;46.896;18.004;2023-06-10T10:35:45;3.33;;;2.30;;
63587;SDS011;49966;46.896;18.004;2023-06-10T10:38:14;3.08;;;2.33;;
63587;SDS011;49966;46.896;18.004;2023-06-10T10:40:43;2.63;;;1.90;;
63587;SDS011;49966;46.896;18.004;2023-06-10T10:43:13;1.90;;;1.80;;
63587;SDS011;49966;46.896;18.004;2023-06-10T10:45:44;1.90;;;1.80;;
63587;SDS011;49966;46.896;18.004;2023-06-10T10:48:14;1.80;;;1.70;;
63587;SDS011;49966;46.896;18.004;2023-06-10T10:50:43;2.72;;;1.90;;
63587;SDS011;49966;46.896;18.004;2023-06-10T10:53:24;4.00;;;2.17;;
63587;SDS011;49966;46.896;18.004;2023-06-10T10:55:59;3.33;;;2.53;;
63587;SDS011;49966;46.896;18.004;2023-06-10T10:58:27;3.00;;;2.60;;
63587;SDS011;49966;46.896;18.004;2023-06-10T11:00:56;3.90;;;3.10;;
63587;SDS011;49966;46.896;18.004;2023-06-10T11:03:27;4.78;;;2.83;;
63587;SDS011;49966;46.896;18.004;2023-06-10T11:05:59;7.47;;;3.40;;
63587;SDS011;49966;46.896;18.004;2023-06-10T11:08:48;4.75;;;3.35;;
63587;SDS011;49966;46.896;18.004;2023-06-10T11:11:18;7.72;;;3.78;;
63587;SDS011;49966;46.896;18.004;2023-06-10T11:14:05;8.68;;;3.72;;
63587;SDS011;49966;46.896;18.004;2023-06-10T11:16:40;3.65;;;3.10;;
63587;SDS011;49966;46.896;18.004;2023-06-10T11:19:10;3.40;;;2.80;;
63587;SDS011;49966;46.896;18.004;2023-06-10T11:22:06;4.68;;;3.47;;
63587;SDS011;49966;46.896;18.004;2023-06-10T11:24:36;11.43;;;5.38;;
63587;SDS011;49966;46.896;18.004;2023-06-10T11:27:14;3.92;;;3.10;;
63587;SDS011;49966;46.896;18.004;2023-06-10T11:30:17;4.65;;;2.92;;
63587;SDS011;49966;46.896;18.004;2023-06-10T11:32:50;4.35;;;2.92;;
63587;SDS011;49966;46.896;18.004;2023-06-10T11:35:20;3.42;;;2.67;;
63587;SDS011;49966;46.896;18.004;2023-06-10T11:37:52;3.10;;;2.80;;
63587;SDS011;49966;46.896;18.004;2023-06-10T11:40:22;4.18;;;3.00;;
63587;SDS011;49966;46.896;18.004;2023-06-10T11:42:50;3.00;;;2.70;;
63587;SDS011;49966;46.896;18.004;2023-06-10T11:45:18;5.63;;;2.78;;
63587;SDS011;49966;46.896;18.004;2023-06-10T11:47:56;3.97;;;2.80;;
63587;SDS011;49966;46.896;18.004;2023-06-10T11:50:29;4.18;;;3.30;;
63587;SDS011;49966;46.896;18.004;2023-06-10T11:52:59;5.03;;;3.05;;
63587;SDS011;49966;46.896;18.004;2023-06-10T11:55:39;4.90;;;3.00;;
63587;SDS011;49966;46.896;18.004;2023-06-10T11:58:12;4.03;;;2.65;;
63587;SDS011;49966;46.896;18.004;2023-06-10T12:00:45;3.08;;;2.75;;
63587;SDS011;49966;46.896;18.004;2023-06-10T12:03:14;4.28;;;3.40;;
63587;SDS011;49966;46.896;18.004;2023-06-10T12:05:56;7.22;;;3.22;;
63587;SDS011;49966;46.896;18.004;2023-06-10T12:08:26;3.80;;;2.85;;
63587;SDS011;49966;46.896;18.004;2023-06-10T12:10:55;6.95;;;3.22;;
63587;SDS011;49966;46.896;18.004;2023-06-10T12:13:25;4.45;;;3.00;;
63587;SDS011;49966;46.896;18.004;2023-06-10T12:15:54;3.65;;;2.67;;
63587;SDS011;49966;46.896;18.004;2023-06-10T12:18:34;5.20;;;3.78;;
63587;SDS011;49966;46.896;18.004;2023-06-10T12:21:03;2.17;;;2.08;;
63587;SDS011;49966;46.896;18.004;2023-06-10T12:26:36;3.22;;;1.80;;
63587;SDS011;49966;46.896;18.004;2023-06-10T12:29:15;12.00;;;2.55;;
63587;SDS011;49966;46.896;18.004;2023-06-10T12:31:51;2.30;;;2.10;;
63587;SDS011;49966;46.896;18.004;2023-06-10T12:34:28;4.07;;;2.10;;
63587;SDS011;49966;46.896;18.004;2023-06-10T12:37:00;2.38;;;2.17;;
63587;SDS011;49966;46.896;18.004;2023-06-10T12:39:31;1.92;;;1.83;;
63587;SDS011;49966;46.896;18.004;2023-06-10T12:42:00;2.42;;;2.00;;
63587;SDS011;49966;46.896;18.004;2023-06-10T12:44:29;2.35;;;1.90;;
63587;SDS011;49966;46.896;18.004;2023-06-10T12:47:06;3.28;;;2.22;;
63587;SDS011;49966;46.896;18.004;2023-06-10T12:49:36;2.30;;;2.10;;
63587;SDS011;49966;46.896;18.004;2023-06-10T12:52:05;3.45;;;2.15;;
63587;SDS011;49966;46.896;18.004;2023-06-10T12:54:35;3.03;;;2.28;;
63587;SDS011;49966;46.896;18.004;2023-06-10T12:57:04;2.65;;;2.40;;
63587;SDS011;49966;46.896;18.004;2023-06-10T12:59:32;2.72;;;2.40;;
63587;SDS011;49966;46.896;18.004;2023-06-10T13:02:00;3.67;;;2.47;;
63587;SDS011;49966;46.896;18.004;2023-06-10T13:04:29;2.40;;;2.20;;
63587;SDS011;49966;46.896;18.004;2023-06-10T13:06:57;3.97;;;2.50;;
63587;SDS011;49966;46.896;18.004;2023-06-10T13:09:25;3.45;;;2.70;;
63587;SDS011;49966;46.896;18.004;2023-06-10T13:11:55;5.63;;;2.72;;
63587;SDS011;49966;46.896;18.004;2023-06-10T13:14:24;3.58;;;2.80;;
63587;SDS011;49966;46.896;18.004;2023-06-10T13:16:52;5.13;;;2.80;;
63587;SDS011;49966;46.896;18.004;2023-06-10T13:19:21;6.50;;;2.97;;
63587;SDS011;49966;46.896;18.004;2023-06-10T13:21:49;3.75;;;3.05;;
63587;SDS011;49966;46.896;18.004;2023-06-10T13:24:22;3.20;;;2.90;;
63587;SDS011;49966;46.896;18.004;2023-06-10T13:27:03;5.90;;;3.20;;
63587;SDS011;49966;46.896;18.004;2023-06-10T13:29:34;4.00;;;2.92;;
63587;SDS011;49966;46.896;18.004;2023-06-10T13:32:03;4.18;;;3.00;;
63587;SDS011;49966;46.896;18.004;2023-06-10T13:34:31;4.93;;;3.17;;
63587;SDS011;49966;46.896;18.004;2023-06-10T13:36:59;3.10;;;2.80;;
63587;SDS011;49966;46.896;18.004;2023-06-10T13:39:30;4.80;;;3.10;;
63587;SDS011;49966;46.896;18.004;2023-06-10T13:41:58;4.95;;;3.05;;
63587;SDS011;49966;46.896;18.004;2023-06-10T13:44:28;4.15;;;2.92;;
63587;SDS011;49966;46.896;18.004;2023-06-10T13:47:00;4.75;;;3.03;;
63587;SDS011;49966;46.896;18.004;2023-06-10T13:49:28;5.05;;;3.20;;
63587;SDS011;49966;46.896;18.004;2023-06-10T13:51:56;4.85;;;3.40;;
63587;SDS011;49966;46.896;18.004;2023-06-10T13:54:24;3.20;;;2.90;;
63587;SDS011;49966;46.896;18.004;2023-06-10T13:56:53;4.97;;;3.20;;
63587;SDS011;49966;46.896;18.004;2023-06-10T13:59:22;4.03;;;3.30;;
63587;SDS011;49966;46.896;18.004;2023-06-10T14:01:51;4.40;;;3.40;;
63587;SDS011;49966;46.896;18.004;2023-06-10T14:04:20;3.67;;;3.10;;
63587;SDS011;49966;46.896;18.004;2023-06-10T14:06:48;6.75;;;3.17;;
63587;SDS011;49966;46.896;18.004;2023-06-10T14:09:16;4.63;;;3.47;;
63587;SDS011;49966;46.896;18.004;2023-06-10T14:11:45;4.32;;;3.47;;
63587;SDS011;49966;46.896;18.004;2023-06-10T14:14:14;3.90;;;3.35;;
63587;SDS011;49966;46.896;18.004;2023-06-10T14:16:42;7.20;;;3.30;;
63587;SDS011;49966;46.896;18.004;2023-06-10T14:19:12;5.50;;;3.30;;
63587;SDS011;49966;46.896;18.004;2023-06-10T14:21:40;6.43;;;3.20;;
63587;SDS011;49966;46.896;18.004;2023-06-10T14:24:08;4.72;;;3.40;;
63587;SDS011;49966;46.896;18.004;2023-06-10T14:26:37;4.82;;;3.22;;
63587;SDS011;49966;46.896;18.004;2023-06-10T14:29:05;5.57;;;3.67;;
63587;SDS011;49966;46.896;18.004;2023-06-10T14:31:35;7.00;;;3.30;;
63587;SDS011;49966;46.896;18.004;2023-06-10T14:34:03;3.70;;;3.30;;
63587;SDS011;49966;46.896;18.004;2023-06-10T14:36:36;4.85;;;3.25;;
63587;SDS011;49966;46.896;18.004;2023-06-10T14:39:05;5.20;;;3.50;;
63587;SDS011;49966;46.896;18.004;2023-06-10T14:41:33;4.85;;;3.17;;
63587;SDS011;49966;46.896;18.004;2023-06-10T14:44:01;3.60;;;3.03;;
63587;SDS011;49966;46.896;18.004;2023-06-10T14:46:30;3.63;;;2.97;;
63587;SDS011;49966;46.896;18.004;2023-06-10T14:48:58;3.53;;;2.90;;
63587;SDS011;49966;46.896;18.004;2023-06-10T14:51:28;6.10;;;3.30;;